sensor_id;sensor_type;location;lat;lon;timestamp;temperature;humidity
3023;DHT22;1521;53.584;9.938;2023-05-07T00:00:21;9.10;99.90
3023;DHT22;1521;53.584;9.938;2023-05-07T00:02:47;9.10;99.90
3023;DHT22;1521;53.584;9.938;2023-05-07T00:05:13;9.10;99.90
3023;DHT22;1521;53.584;9.938;2023-05-07T00:07:38;9.10;99.90
3023;DHT22;1521;53.584;9.938;2023-05-07T00:10:05;9.00;99.90
3023;DHT22;1521;53.584;9.938;2023-05-07T00:12:32;9.00;1.00
3023;DHT22;1521;53.584;9.938;2023-05-07T00:15:00;9.00;1.00
3023;DHT22;1521;53.584;9.938;2023-05-07T00:17:25;9.00;1.00
3023;DHT22;1521;53.584;9.938;2023-05-07T00:19:51;8.90;99.90
3023;DHT22;1521;53.584;9.938;2023-05-07T00:22:16;9.00;1.00
3023;DHT22;1521;53.584;9.938;2023-05-07T00:24:42;9.00;1.00
3023;DHT22;1521;53.584;9.938;2023-05-07T00:27:08;9.00;1.00
3023;DHT22;1521;53.584;9.938;2023-05-07T00:29:34;9.00;1.00
3023;DHT22;1521;53.584;9.938;2023-05-07T00:31:59;9.00;1.00
3023;DHT22;1521;53.584;9.938;2023-05-07T00:34:25;9.00;1.00
3023;DHT22;1521;53.584;9.938;2023-05-07T00:36:50;9.00;1.00
3023;DHT22;1521;53.584;9.938;2023-05-07T00:39:16;9.00;1.00
3023;DHT22;1521;53.584;9.938;2023-05-07T00:41:41;9.00;1.00
3023;DHT22;1521;53.584;9.938;2023-05-07T00:44:07;9.00;1.00
3023;DHT22;1521;53.584;9.938;2023-05-07T00:46:33;9.00;1.00
3023;DHT22;1521;53.584;9.938;2023-05-07T00:48:59;9.00;1.00
3023;DHT22;1521;53.584;9.938;2023-05-07T00:51:25;9.00;1.00
3023;DHT22;1521;53.584;9.938;2023-05-07T00:53:53;9.00;1.00
3023;DHT22;1521;53.584;9.938;2023-05-07T00:56:20;9.10;1.00
3023;DHT22;1521;53.584;9.938;2023-05-07T00:58:46;9.10;99.90
3023;DHT22;1521;53.584;9.938;2023-05-07T01:01:12;9.10;99.90
3023;DHT22;1521;53.584;9.938;2023-05-07T01:03:38;9.00;99.90
3023;DHT22;1521;53.584;9.938;2023-05-07T01:06:04;9.00;99.90
3023;DHT22;1521;53.584;9.938;2023-05-07T01:08:32;9.00;99.90
3023;DHT22;1521;53.584;9.938;2023-05-07T01:10:58;9.00;99.90
3023;DHT22;1521;53.584;9.938;2023-05-07T01:13:24;9.00;99.90
3023;DHT22;1521;53.584;9.938;2023-05-07T01:15:50;9.10;99.90
3023;DHT22;1521;53.584;9.938;2023-05-07T01:18:16;9.10;99.90
3023;DHT22;1521;53.584;9.938;2023-05-07T01:20:42;9.10;99.90
3023;DHT22;1521;53.584;9.938;2023-05-07T01:23:08;9.10;99.90
3023;DHT22;1521;53.584;9.938;2023-05-07T01:25:35;9.10;99.90
3023;DHT22;1521;53.584;9.938;2023-05-07T01:28:01;9.10;99.90
3023;DHT22;1521;53.584;9.938;2023-05-07T01:30:27;9.10;99.90
3023;DHT22;1521;53.584;9.938;2023-05-07T01:33:02;9.10;99.90
3023;DHT22;1521;53.584;9.938;2023-05-07T01:35:32;9.10;99.90
3023;DHT22;1521;53.584;9.938;2023-05-07T01:38:00;9.10;99.90
3023;DHT22;1521;53.584;9.938;2023-05-07T01:40:27;9.10;99.90
3023;DHT22;1521;53.584;9.938;2023-05-07T01:42:53;9.10;99.90
3023;DHT22;1521;53.584;9.938;2023-05-07T01:45:19;9.10;1.00
3023;DHT22;1521;53.584;9.938;2023-05-07T01:47:45;9.20;1.00
3023;DHT22;1521;53.584;9.938;2023-05-07T01:50:12;9.10;1.00
3023;DHT22;1521;53.584;9.938;2023-05-07T01:52:38;9.10;1.00
3023;DHT22;1521;53.584;9.938;2023-05-07T01:55:04;9.20;1.00
3023;DHT22;1521;53.584;9.938;2023-05-07T01:57:30;9.10;1.00
3023;DHT22;1521;53.584;9.938;2023-05-07T01:59:56;9.10;1.00
3023;DHT22;1521;53.584;9.938;2023-05-07T02:02:21;9.10;1.00
3023;DHT22;1521;53.584;9.938;2023-05-07T02:04:47;9.10;1.00
3023;DHT22;1521;53.584;9.938;2023-05-07T02:07:12;9.10;1.00
3023;DHT22;1521;53.584;9.938;2023-05-07T02:09:38;9.10;1.00
3023;DHT22;1521;53.584;9.938;2023-05-07T02:12:04;9.10;1.00
3023;DHT22;1521;53.584;9.938;2023-05-07T02:14:29;9.10;1.00
3023;DHT22;1521;53.584;9.938;2023-05-07T02:16:55;9.00;1.00
3023;DHT22;1521;53.584;9.938;2023-05-07T02:19:20;9.10;1.00
3023;DHT22;1521;53.584;9.938;2023-05-07T02:21:46;9.10;1.00
3023;DHT22;1521;53.584;9.938;2023-05-07T02:24:13;9.10;1.00
3023;DHT22;1521;53.584;9.938;2023-05-07T02:26:40;9.10;1.00
3023;DHT22;1521;53.584;9.938;2023-05-07T02:29:06;9.10;1.00
3023;DHT22;1521;53.584;9.938;2023-05-07T02:31:31;9.10;1.00
3023;DHT22;1521;53.584;9.938;2023-05-07T02:33:59;9.10;1.00
3023;DHT22;1521;53.584;9.938;2023-05-07T02:36:25;9.10;1.00
3023;DHT22;1521;53.584;9.938;2023-05-07T02:38:52;9.10;1.00
3023;DHT22;1521;53.584;9.938;2023-05-07T02:41:17;9.10;1.00
3023;DHT22;1521;53.584;9.938;2023-05-07T02:43:43;9.10;1.00
3023;DHT22;1521;53.584;9.938;2023-05-07T02:46:09;9.10;1.00
3023;DHT22;1521;53.584;9.938;2023-05-07T02:48:35;9.10;1.00
3023;DHT22;1521;53.584;9.938;2023-05-07T02:51:01;9.10;1.00
3023;DHT22;1521;53.584;9.938;2023-05-07T02:53:26;9.00;1.00
3023;DHT22;1521;53.584;9.938;2023-05-07T02:55:56;9.00;1.00
3023;DHT22;1521;53.584;9.938;2023-05-07T02:58:22;9.00;28.70
3023;DHT22;1521;53.584;9.938;2023-05-07T03:00:47;9.00;13.20
3023;DHT22;1521;53.584;9.938;2023-05-07T03:03:14;9.00;99.90
3023;DHT22;1521;53.584;9.938;2023-05-07T03:05:39;9.00;99.90
3023;DHT22;1521;53.584;9.938;2023-05-07T03:08:05;9.00;99.90
3023;DHT22;1521;53.584;9.938;2023-05-07T03:10:30;9.00;99.90
3023;DHT22;1521;53.584;9.938;2023-05-07T03:12:56;9.00;99.90
3023;DHT22;1521;53.584;9.938;2023-05-07T03:15:22;9.00;99.90
3023;DHT22;1521;53.584;9.938;2023-05-07T03:17:48;9.00;83.30
3023;DHT22;1521;53.584;9.938;2023-05-07T03:20:13;8.90;99.90
3023;DHT22;1521;53.584;9.938;2023-05-07T03:22:39;9.00;99.90
3023;DHT22;1521;53.584;9.938;2023-05-07T03:25:05;8.90;99.90
3023;DHT22;1521;53.584;9.938;2023-05-07T03:27:31;8.90;99.90
3023;DHT22;1521;53.584;9.938;2023-05-07T03:29:57;8.90;99.90
3023;DHT22;1521;53.584;9.938;2023-05-07T03:32:22;8.90;99.90
3023;DHT22;1521;53.584;9.938;2023-05-07T03:34:48;8.90;99.90
3023;DHT22;1521;53.584;9.938;2023-05-07T03:37:14;8.90;99.90
3023;DHT22;1521;53.584;9.938;2023-05-07T03:39:39;8.90;1.00
3023;DHT22;1521;53.584;9.938;2023-05-07T03:42:05;8.90;99.90
3023;DHT22;1521;53.584;9.938;2023-05-07T03:44:30;8.80;1.00
3023;DHT22;1521;53.584;9.938;2023-05-07T03:46:56;8.90;1.00
3023;DHT22;1521;53.584;9.938;2023-05-07T03:49:22;9.00;99.90
3023;DHT22;1521;53.584;9.938;2023-05-07T03:51:47;8.90;99.90
3023;DHT22;1521;53.584;9.938;2023-05-07T03:54:13;9.00;99.90
3023;DHT22;1521;53.584;9.938;2023-05-07T03:56:38;9.00;99.90
3023;DHT22;1521;53.584;9.938;2023-05-07T03:59:04;9.00;99.90
3023;DHT22;1521;53.584;9.938;2023-05-07T04:01:30;9.00;99.90
3023;DHT22;1521;53.584;9.938;2023-05-07T04:03:55;9.10;1.00
3023;DHT22;1521;53.584;9.938;2023-05-07T04:06:21;9.00;1.00
3023;DHT22;1521;53.584;9.938;2023-05-07T04:08:46;9.00;1.00
3023;DHT22;1521;53.584;9.938;2023-05-07T04:11:12;9.00;1.00
3023;DHT22;1521;53.584;9.938;2023-05-07T04:13:37;9.10;1.00
3023;DHT22;1521;53.584;9.938;2023-05-07T04:16:04;9.10;99.90
3023;DHT22;1521;53.584;9.938;2023-05-07T04:18:30;9.10;99.90
3023;DHT22;1521;53.584;9.938;2023-05-07T04:20:56;9.10;99.90
3023;DHT22;1521;53.584;9.938;2023-05-07T04:23:21;9.10;99.90
3023;DHT22;1521;53.584;9.938;2023-05-07T04:25:47;9.10;99.90
3023;DHT22;1521;53.584;9.938;2023-05-07T04:28:12;9.10;99.90
3023;DHT22;1521;53.584;9.938;2023-05-07T04:30:38;9.20;99.90
3023;DHT22;1521;53.584;9.938;2023-05-07T04:33:04;9.10;99.90
3023;DHT22;1521;53.584;9.938;2023-05-07T04:35:31;9.10;99.90
3023;DHT22;1521;53.584;9.938;2023-05-07T04:37:56;9.20;99.90
3023;DHT22;1521;53.584;9.938;2023-05-07T04:40:22;9.30;99.90
3023;DHT22;1521;53.584;9.938;2023-05-07T04:42:47;9.30;99.90
3023;DHT22;1521;53.584;9.938;2023-05-07T04:45:13;9.30;99.90
3023;DHT22;1521;53.584;9.938;2023-05-07T04:47:39;9.30;99.90
3023;DHT22;1521;53.584;9.938;2023-05-07T04:50:06;9.30;99.90
3023;DHT22;1521;53.584;9.938;2023-05-07T04:52:32;9.30;99.90
3023;DHT22;1521;53.584;9.938;2023-05-07T04:54:59;9.30;99.90
3023;DHT22;1521;53.584;9.938;2023-05-07T04:57:26;9.30;99.90
3023;DHT22;1521;53.584;9.938;2023-05-07T04:59:52;9.40;99.90
3023;DHT22;1521;53.584;9.938;2023-05-07T05:02:17;9.40;99.90
3023;DHT22;1521;53.584;9.938;2023-05-07T05:04:43;9.40;99.90
3023;DHT22;1521;53.584;9.938;2023-05-07T05:07:08;9.40;99.90
3023;DHT22;1521;53.584;9.938;2023-05-07T05:09:34;9.40;99.90
3023;DHT22;1521;53.584;9.938;2023-05-07T05:12:00;9.40;99.90
3023;DHT22;1521;53.584;9.938;2023-05-07T05:14:25;9.40;99.90
3023;DHT22;1521;53.584;9.938;2023-05-07T05:16:51;9.50;99.90
3023;DHT22;1521;53.584;9.938;2023-05-07T05:19:16;9.50;99.90
3023;DHT22;1521;53.584;9.938;2023-05-07T05:21:42;9.50;99.90
3023;DHT22;1521;53.584;9.938;2023-05-07T05:24:08;9.50;99.90
3023;DHT22;1521;53.584;9.938;2023-05-07T05:26:34;9.50;99.90
3023;DHT22;1521;53.584;9.938;2023-05-07T05:29:00;9.50;99.90
3023;DHT22;1521;53.584;9.938;2023-05-07T05:31:25;9.50;99.90
3023;DHT22;1521;53.584;9.938;2023-05-07T05:33:51;9.50;99.90
3023;DHT22;1521;53.584;9.938;2023-05-07T05:36:17;9.50;99.90
3023;DHT22;1521;53.584;9.938;2023-05-07T05:38:42;9.50;99.90
3023;DHT22;1521;53.584;9.938;2023-05-07T05:41:09;9.50;99.90
3023;DHT22;1521;53.584;9.938;2023-05-07T05:43:35;9.60;99.90
3023;DHT22;1521;53.584;9.938;2023-05-07T05:46:00;9.60;99.90
3023;DHT22;1521;53.584;9.938;2023-05-07T05:48:26;9.60;99.90
3023;DHT22;1521;53.584;9.938;2023-05-07T05:50:51;9.60;99.90
3023;DHT22;1521;53.584;9.938;2023-05-07T05:53:17;9.50;99.90
3023;DHT22;1521;53.584;9.938;2023-05-07T05:55:43;9.50;99.90
3023;DHT22;1521;53.584;9.938;2023-05-07T05:58:09;9.50;99.90
3023;DHT22;1521;53.584;9.938;2023-05-07T06:00:34;9.60;99.90
3023;DHT22;1521;53.584;9.938;2023-05-07T06:03:00;9.50;99.90
3023;DHT22;1521;53.584;9.938;2023-05-07T06:05:26;9.60;99.90
3023;DHT22;1521;53.584;9.938;2023-05-07T06:07:51;9.60;99.90
3023;DHT22;1521;53.584;9.938;2023-05-07T06:10:17;9.60;99.90
3023;DHT22;1521;53.584;9.938;2023-05-07T06:12:43;9.60;99.90
3023;DHT22;1521;53.584;9.938;2023-05-07T06:15:09;9.60;99.90
3023;DHT22;1521;53.584;9.938;2023-05-07T06:17:34;9.60;99.90
3023;DHT22;1521;53.584;9.938;2023-05-07T06:20:00;9.60;99.90
3023;DHT22;1521;53.584;9.938;2023-05-07T06:22:26;9.70;99.90
3023;DHT22;1521;53.584;9.938;2023-05-07T06:24:51;9.70;99.90
3023;DHT22;1521;53.584;9.938;2023-05-07T06:27:17;9.70;99.90
3023;DHT22;1521;53.584;9.938;2023-05-07T06:29:42;9.70;99.90
3023;DHT22;1521;53.584;9.938;2023-05-07T06:32:09;9.70;99.90
3023;DHT22;1521;53.584;9.938;2023-05-07T06:34:36;9.70;99.90
3023;DHT22;1521;53.584;9.938;2023-05-07T06:37:02;9.80;99.90
3023;DHT22;1521;53.584;9.938;2023-05-07T06:39:27;9.80;96.90
3023;DHT22;1521;53.584;9.938;2023-05-07T06:41:53;9.90;87.40
3023;DHT22;1521;53.584;9.938;2023-05-07T06:44:19;9.90;96.20
3023;DHT22;1521;53.584;9.938;2023-05-07T06:46:44;9.90;92.20
3023;DHT22;1521;53.584;9.938;2023-05-07T06:49:12;10.00;85.20
3023;DHT22;1521;53.584;9.938;2023-05-07T06:51:37;10.00;89.40
3023;DHT22;1521;53.584;9.938;2023-05-07T06:54:03;10.00;78.30
3023;DHT22;1521;53.584;9.938;2023-05-07T06:56:30;10.10;95.30
3023;DHT22;1521;53.584;9.938;2023-05-07T06:58:56;10.20;95.70
3023;DHT22;1521;53.584;9.938;2023-05-07T07:01:22;10.20;56.10
3023;DHT22;1521;53.584;9.938;2023-05-07T07:03:47;10.20;46.30
3023;DHT22;1521;53.584;9.938;2023-05-07T07:06:13;10.30;31.20
3023;DHT22;1521;53.584;9.938;2023-05-07T07:08:38;10.30;47.00
3023;DHT22;1521;53.584;9.938;2023-05-07T07:11:05;10.30;14.70
3023;DHT22;1521;53.584;9.938;2023-05-07T07:13:30;10.50;11.10
3023;DHT22;1521;53.584;9.938;2023-05-07T07:15:56;10.50;1.00
3023;DHT22;1521;53.584;9.938;2023-05-07T07:18:22;10.50;1.00
3023;DHT22;1521;53.584;9.938;2023-05-07T07:20:47;10.50;1.00
3023;DHT22;1521;53.584;9.938;2023-05-07T07:23:13;10.60;1.00
3023;DHT22;1521;53.584;9.938;2023-05-07T07:25:39;10.50;1.00
3023;DHT22;1521;53.584;9.938;2023-05-07T07:28:05;10.60;1.00
3023;DHT22;1521;53.584;9.938;2023-05-07T07:30:31;10.60;1.00
3023;DHT22;1521;53.584;9.938;2023-05-07T07:32:57;10.60;1.00
3023;DHT22;1521;53.584;9.938;2023-05-07T07:35:28;10.70;1.00
3023;DHT22;1521;53.584;9.938;2023-05-07T07:37:53;10.80;1.00
3023;DHT22;1521;53.584;9.938;2023-05-07T07:40:19;10.80;1.00
3023;DHT22;1521;53.584;9.938;2023-05-07T07:42:45;10.90;1.00
3023;DHT22;1521;53.584;9.938;2023-05-07T07:45:11;11.00;1.00
3023;DHT22;1521;53.584;9.938;2023-05-07T07:47:37;11.00;1.00
3023;DHT22;1521;53.584;9.938;2023-05-07T07:50:02;10.90;1.00
3023;DHT22;1521;53.584;9.938;2023-05-07T07:52:28;11.00;1.00
3023;DHT22;1521;53.584;9.938;2023-05-07T07:54:53;11.00;1.00
3023;DHT22;1521;53.584;9.938;2023-05-07T07:57:19;11.10;1.00
3023;DHT22;1521;53.584;9.938;2023-05-07T07:59:44;11.20;1.00
3023;DHT22;1521;53.584;9.938;2023-05-07T08:02:10;11.20;1.00
3023;DHT22;1521;53.584;9.938;2023-05-07T08:04:36;11.20;1.00
3023;DHT22;1521;53.584;9.938;2023-05-07T08:07:02;11.30;1.00
3023;DHT22;1521;53.584;9.938;2023-05-07T08:09:28;11.40;1.00
3023;DHT22;1521;53.584;9.938;2023-05-07T08:11:54;11.30;1.00
3023;DHT22;1521;53.584;9.938;2023-05-07T08:14:19;11.30;1.00
3023;DHT22;1521;53.584;9.938;2023-05-07T08:16:45;11.20;1.00
3023;DHT22;1521;53.584;9.938;2023-05-07T08:19:10;11.30;1.00
3023;DHT22;1521;53.584;9.938;2023-05-07T08:21:39;11.30;1.00
3023;DHT22;1521;53.584;9.938;2023-05-07T08:24:05;11.20;1.00
3023;DHT22;1521;53.584;9.938;2023-05-07T08:26:31;11.20;1.00
3023;DHT22;1521;53.584;9.938;2023-05-07T08:28:56;11.30;1.00
3023;DHT22;1521;53.584;9.938;2023-05-07T08:31:22;11.30;1.00
3023;DHT22;1521;53.584;9.938;2023-05-07T08:33:47;11.40;1.00
3023;DHT22;1521;53.584;9.938;2023-05-07T08:36:13;11.50;1.00
3023;DHT22;1521;53.584;9.938;2023-05-07T08:38:38;11.60;1.00
3023;DHT22;1521;53.584;9.938;2023-05-07T08:41:06;11.60;1.00
3023;DHT22;1521;53.584;9.938;2023-05-07T08:43:33;11.60;1.00
3023;DHT22;1521;53.584;9.938;2023-05-07T08:46:01;11.60;1.00
3023;DHT22;1521;53.584;9.938;2023-05-07T08:48:29;11.70;1.00
3023;DHT22;1521;53.584;9.938;2023-05-07T08:50:58;11.70;1.00
3023;DHT22;1521;53.584;9.938;2023-05-07T08:53:24;11.50;1.00
3023;DHT22;1521;53.584;9.938;2023-05-07T08:55:49;11.50;1.00
3023;DHT22;1521;53.584;9.938;2023-05-07T08:58:15;11.50;1.00
3023;DHT22;1521;53.584;9.938;2023-05-07T09:00:41;11.50;1.00
3023;DHT22;1521;53.584;9.938;2023-05-07T09:03:07;11.50;1.00
3023;DHT22;1521;53.584;9.938;2023-05-07T09:05:33;11.50;1.00
3023;DHT22;1521;53.584;9.938;2023-05-07T09:07:59;11.50;1.00
3023;DHT22;1521;53.584;9.938;2023-05-07T09:10:25;11.50;1.00
3023;DHT22;1521;53.584;9.938;2023-05-07T09:12:51;11.50;1.00
3023;DHT22;1521;53.584;9.938;2023-05-07T09:15:18;11.60;1.00
3023;DHT22;1521;53.584;9.938;2023-05-07T09:17:44;11.70;1.00
3023;DHT22;1521;53.584;9.938;2023-05-07T09:20:10;11.80;1.00
3023;DHT22;1521;53.584;9.938;2023-05-07T09:22:39;11.90;1.00
3023;DHT22;1521;53.584;9.938;2023-05-07T09:25:06;12.00;1.00
3023;DHT22;1521;53.584;9.938;2023-05-07T09:27:32;12.10;1.00
3023;DHT22;1521;53.584;9.938;2023-05-07T09:29:58;12.20;1.00
3023;DHT22;1521;53.584;9.938;2023-05-07T09:32:25;12.30;1.00
3023;DHT22;1521;53.584;9.938;2023-05-07T09:34:50;12.50;1.00
3023;DHT22;1521;53.584;9.938;2023-05-07T09:37:16;12.70;1.00
3023;DHT22;1521;53.584;9.938;2023-05-07T09:39:47;12.70;1.00
3023;DHT22;1521;53.584;9.938;2023-05-07T09:42:13;12.80;1.00
3023;DHT22;1521;53.584;9.938;2023-05-07T09:44:40;12.80;1.00
3023;DHT22;1521;53.584;9.938;2023-05-07T09:47:07;12.80;1.00
3023;DHT22;1521;53.584;9.938;2023-05-07T09:49:39;12.90;1.00
3023;DHT22;1521;53.584;9.938;2023-05-07T09:52:06;13.00;1.00
3023;DHT22;1521;53.584;9.938;2023-05-07T09:54:34;13.10;1.00
3023;DHT22;1521;53.584;9.938;2023-05-07T09:57:02;13.10;1.00
3023;DHT22;1521;53.584;9.938;2023-05-07T09:59:30;13.20;1.00
3023;DHT22;1521;53.584;9.938;2023-05-07T10:01:58;13.10;1.00
3023;DHT22;1521;53.584;9.938;2023-05-07T10:04:25;13.10;1.00
3023;DHT22;1521;53.584;9.938;2023-05-07T10:06:52;13.10;1.00
3023;DHT22;1521;53.584;9.938;2023-05-07T10:09:19;13.10;1.00
3023;DHT22;1521;53.584;9.938;2023-05-07T10:11:46;13.20;1.00
3023;DHT22;1521;53.584;9.938;2023-05-07T10:14:14;13.20;1.00
3023;DHT22;1521;53.584;9.938;2023-05-07T10:16:40;13.10;1.00
3023;DHT22;1521;53.584;9.938;2023-05-07T10:19:07;13.10;1.00
3023;DHT22;1521;53.584;9.938;2023-05-07T10:21:36;13.10;1.00
3023;DHT22;1521;53.584;9.938;2023-05-07T10:24:05;13.10;1.00
3023;DHT22;1521;53.584;9.938;2023-05-07T10:26:44;13.00;1.00
3023;DHT22;1521;53.584;9.938;2023-05-07T10:34:35;13.20;1.00
3023;DHT22;1521;53.584;9.938;2023-05-07T10:37:02;13.20;1.00
3023;DHT22;1521;53.584;9.938;2023-05-07T10:39:28;13.20;1.00
3023;DHT22;1521;53.584;9.938;2023-05-07T10:41:53;13.10;1.00
3023;DHT22;1521;53.584;9.938;2023-05-07T10:44:29;13.00;1.00
3023;DHT22;1521;53.584;9.938;2023-05-07T10:47:09;13.00;1.00
3023;DHT22;1521;53.584;9.938;2023-05-07T10:52:22;13.00;1.00
3023;DHT22;1521;53.584;9.938;2023-05-07T10:55:27;13.00;1.00
3023;DHT22;1521;53.584;9.938;2023-05-07T10:57:53;13.10;1.00
3023;DHT22;1521;53.584;9.938;2023-05-07T11:05:26;13.30;1.00
3023;DHT22;1521;53.584;9.938;2023-05-07T11:08:00;13.50;1.00
3023;DHT22;1521;53.584;9.938;2023-05-07T11:10:48;13.60;1.00
3023;DHT22;1521;53.584;9.938;2023-05-07T11:13:15;13.70;1.00
3023;DHT22;1521;53.584;9.938;2023-05-07T11:15:45;13.60;1.00
3023;DHT22;1521;53.584;9.938;2023-05-07T11:18:13;13.80;1.00
3023;DHT22;1521;53.584;9.938;2023-05-07T11:20:59;14.00;1.00
3023;DHT22;1521;53.584;9.938;2023-05-07T11:26:09;14.00;1.00
3023;DHT22;1521;53.584;9.938;2023-05-07T11:28:42;14.10;1.00
3023;DHT22;1521;53.584;9.938;2023-05-07T11:31:09;14.40;1.00
3023;DHT22;1521;53.584;9.938;2023-05-07T11:33:35;14.60;1.00
3023;DHT22;1521;53.584;9.938;2023-05-07T11:36:02;14.70;1.00
3023;DHT22;1521;53.584;9.938;2023-05-07T11:38:30;14.80;1.00
3023;DHT22;1521;53.584;9.938;2023-05-07T11:40:57;14.80;1.00
3023;DHT22;1521;53.584;9.938;2023-05-07T11:43:26;15.10;1.00
3023;DHT22;1521;53.584;9.938;2023-05-07T11:45:52;15.40;1.00
3023;DHT22;1521;53.584;9.938;2023-05-07T11:48:17;15.80;1.00
3023;DHT22;1521;53.584;9.938;2023-05-07T11:51:09;16.50;1.00
3023;DHT22;1521;53.584;9.938;2023-05-07T11:53:39;16.90;1.00
3023;DHT22;1521;53.584;9.938;2023-05-07T11:56:09;17.10;1.00
3023;DHT22;1521;53.584;9.938;2023-05-07T11:58:35;16.80;1.00
3023;DHT22;1521;53.584;9.938;2023-05-07T12:01:01;16.50;1.00
3023;DHT22;1521;53.584;9.938;2023-05-07T12:03:27;16.50;1.00
3023;DHT22;1521;53.584;9.938;2023-05-07T12:05:52;16.60;1.00
3023;DHT22;1521;53.584;9.938;2023-05-07T12:08:19;16.60;1.00
3023;DHT22;1521;53.584;9.938;2023-05-07T12:10:47;16.50;1.00
3023;DHT22;1521;53.584;9.938;2023-05-07T12:13:21;16.20;1.00
3023;DHT22;1521;53.584;9.938;2023-05-07T12:15:51;16.50;1.00
3023;DHT22;1521;53.584;9.938;2023-05-07T12:18:18;16.70;1.00
3023;DHT22;1521;53.584;9.938;2023-05-07T12:20:44;16.80;1.00
3023;DHT22;1521;53.584;9.938;2023-05-07T12:23:10;16.90;1.00
3023;DHT22;1521;53.584;9.938;2023-05-07T12:25:37;17.00;1.00
3023;DHT22;1521;53.584;9.938;2023-05-07T12:28:04;16.80;1.00
3023;DHT22;1521;53.584;9.938;2023-05-07T12:30:37;16.80;1.00
3023;DHT22;1521;53.584;9.938;2023-05-07T12:33:02;17.00;1.00
3023;DHT22;1521;53.584;9.938;2023-05-07T12:35:31;16.90;1.00
3023;DHT22;1521;53.584;9.938;2023-05-07T12:37:58;17.00;1.00
3023;DHT22;1521;53.584;9.938;2023-05-07T12:40:35;17.00;1.00
3023;DHT22;1521;53.584;9.938;2023-05-07T12:43:01;17.10;1.00
3023;DHT22;1521;53.584;9.938;2023-05-07T12:45:27;17.10;1.00
3023;DHT22;1521;53.584;9.938;2023-05-07T12:47:53;17.00;1.00
3023;DHT22;1521;53.584;9.938;2023-05-07T12:50:18;17.00;1.00
3023;DHT22;1521;53.584;9.938;2023-05-07T12:52:47;17.00;1.00
3023;DHT22;1521;53.584;9.938;2023-05-07T12:55:15;17.10;1.00
3023;DHT22;1521;53.584;9.938;2023-05-07T12:58:01;17.20;1.00
3023;DHT22;1521;53.584;9.938;2023-05-07T13:00:37;17.10;1.00
3023;DHT22;1521;53.584;9.938;2023-05-07T13:03:03;16.80;1.00
3023;DHT22;1521;53.584;9.938;2023-05-07T13:05:28;16.90;1.00
3023;DHT22;1521;53.584;9.938;2023-05-07T13:07:55;16.70;1.00
3023;DHT22;1521;53.584;9.938;2023-05-07T13:10:40;16.90;1.00
3023;DHT22;1521;53.584;9.938;2023-05-07T13:13:06;17.00;1.00
3023;DHT22;1521;53.584;9.938;2023-05-07T13:15:32;16.90;1.00
3023;DHT22;1521;53.584;9.938;2023-05-07T13:17:57;17.00;1.00
3023;DHT22;1521;53.584;9.938;2023-05-07T13:20:23;17.30;1.00
3023;DHT22;1521;53.584;9.938;2023-05-07T13:22:48;17.40;1.00
3023;DHT22;1521;53.584;9.938;2023-05-07T13:25:14;17.50;1.00
3023;DHT22;1521;53.584;9.938;2023-05-07T13:27:40;17.50;1.00
3023;DHT22;1521;53.584;9.938;2023-05-07T13:30:06;17.60;1.00
3023;DHT22;1521;53.584;9.938;2023-05-07T13:32:32;17.90;1.00
3023;DHT22;1521;53.584;9.938;2023-05-07T13:34:58;18.10;1.00
3023;DHT22;1521;53.584;9.938;2023-05-07T13:37:24;18.30;1.00
3023;DHT22;1521;53.584;9.938;2023-05-07T13:39:49;18.20;1.00
3023;DHT22;1521;53.584;9.938;2023-05-07T13:42:15;18.20;1.00
3023;DHT22;1521;53.584;9.938;2023-05-07T13:44:40;18.50;1.00
3023;DHT22;1521;53.584;9.938;2023-05-07T13:47:06;18.50;1.00
3023;DHT22;1521;53.584;9.938;2023-05-07T13:49:32;18.40;1.00
3023;DHT22;1521;53.584;9.938;2023-05-07T13:51:57;18.40;1.00
3023;DHT22;1521;53.584;9.938;2023-05-07T13:54:23;18.70;1.00
3023;DHT22;1521;53.584;9.938;2023-05-07T13:56:48;18.90;1.00
3023;DHT22;1521;53.584;9.938;2023-05-07T13:59:14;18.90;1.00
3023;DHT22;1521;53.584;9.938;2023-05-07T14:01:40;18.90;1.00
3023;DHT22;1521;53.584;9.938;2023-05-07T14:04:06;19.00;1.00
3023;DHT22;1521;53.584;9.938;2023-05-07T14:06:33;18.90;1.00
3023;DHT22;1521;53.584;9.938;2023-05-07T14:08:58;19.10;1.00
3023;DHT22;1521;53.584;9.938;2023-05-07T14:11:25;19.30;1.00
3023;DHT22;1521;53.584;9.938;2023-05-07T14:13:50;19.20;1.00
3023;DHT22;1521;53.584;9.938;2023-05-07T14:16:16;19.40;1.00
3023;DHT22;1521;53.584;9.938;2023-05-07T14:18:42;19.50;1.00
3023;DHT22;1521;53.584;9.938;2023-05-07T14:21:07;19.60;1.00
3023;DHT22;1521;53.584;9.938;2023-05-07T14:23:34;19.50;1.00
3023;DHT22;1521;53.584;9.938;2023-05-07T14:26:00;19.40;1.00
3023;DHT22;1521;53.584;9.938;2023-05-07T14:28:26;19.40;1.00
3023;DHT22;1521;53.584;9.938;2023-05-07T14:30:51;19.30;1.00
3023;DHT22;1521;53.584;9.938;2023-05-07T14:33:17;19.30;1.00
3023;DHT22;1521;53.584;9.938;2023-05-07T14:35:42;19.40;1.00
3023;DHT22;1521;53.584;9.938;2023-05-07T14:38:13;19.60;1.00
3023;DHT22;1521;53.584;9.938;2023-05-07T14:40:38;19.50;1.00
3023;DHT22;1521;53.584;9.938;2023-05-07T14:43:04;19.60;1.00
3023;DHT22;1521;53.584;9.938;2023-05-07T14:45:29;19.70;1.00
3023;DHT22;1521;53.584;9.938;2023-05-07T14:47:55;20.20;1.00
3023;DHT22;1521;53.584;9.938;2023-05-07T14:50:21;20.60;1.00
3023;DHT22;1521;53.584;9.938;2023-05-07T14:52:46;20.90;1.00
3023;DHT22;1521;53.584;9.938;2023-05-07T14:55:12;21.20;1.00
3023;DHT22;1521;53.584;9.938;2023-05-07T14:57:37;21.10;1.00
3023;DHT22;1521;53.584;9.938;2023-05-07T15:00:03;21.30;1.00
3023;DHT22;1521;53.584;9.938;2023-05-07T15:02:34;21.30;1.00
3023;DHT22;1521;53.584;9.938;2023-05-07T15:04:59;21.30;1.00
3023;DHT22;1521;53.584;9.938;2023-05-07T15:07:25;21.30;1.00
3023;DHT22;1521;53.584;9.938;2023-05-07T15:09:51;20.80;1.00
3023;DHT22;1521;53.584;9.938;2023-05-07T15:12:17;20.10;1.00
3023;DHT22;1521;53.584;9.938;2023-05-07T15:14:42;19.30;1.00
3023;DHT22;1521;53.584;9.938;2023-05-07T15:17:08;18.70;1.00
3023;DHT22;1521;53.584;9.938;2023-05-07T15:19:33;18.30;1.00
3023;DHT22;1521;53.584;9.938;2023-05-07T15:22:00;18.10;1.00
3023;DHT22;1521;53.584;9.938;2023-05-07T15:24:29;17.90;1.00
3023;DHT22;1521;53.584;9.938;2023-05-07T15:26:55;17.70;1.00
3023;DHT22;1521;53.584;9.938;2023-05-07T15:29:21;17.60;1.00
3023;DHT22;1521;53.584;9.938;2023-05-07T15:31:46;17.50;1.00
3023;DHT22;1521;53.584;9.938;2023-05-07T15:34:12;17.50;1.00
3023;DHT22;1521;53.584;9.938;2023-05-07T15:36:40;17.40;1.00
3023;DHT22;1521;53.584;9.938;2023-05-07T15:39:06;17.30;1.00
3023;DHT22;1521;53.584;9.938;2023-05-07T15:41:31;17.30;1.00
3023;DHT22;1521;53.584;9.938;2023-05-07T15:43:57;17.20;1.00
3023;DHT22;1521;53.584;9.938;2023-05-07T15:46:24;17.10;1.00
3023;DHT22;1521;53.584;9.938;2023-05-07T15:48:51;17.00;1.00
3023;DHT22;1521;53.584;9.938;2023-05-07T15:51:17;17.00;1.00
3023;DHT22;1521;53.584;9.938;2023-05-07T15:53:43;17.00;1.00
3023;DHT22;1521;53.584;9.938;2023-05-07T15:56:09;17.00;1.00
3023;DHT22;1521;53.584;9.938;2023-05-07T15:58:35;17.00;1.00
3023;DHT22;1521;53.584;9.938;2023-05-07T16:01:02;16.90;1.00
3023;DHT22;1521;53.584;9.938;2023-05-07T16:03:28;16.90;1.00
3023;DHT22;1521;53.584;9.938;2023-05-07T16:05:54;16.80;1.00
3023;DHT22;1521;53.584;9.938;2023-05-07T16:08:22;16.80;1.00
3023;DHT22;1521;53.584;9.938;2023-05-07T16:10:48;16.70;1.00
3023;DHT22;1521;53.584;9.938;2023-05-07T16:13:14;16.60;1.00
3023;DHT22;1521;53.584;9.938;2023-05-07T16:15:43;16.70;1.00
3023;DHT22;1521;53.584;9.938;2023-05-07T16:18:09;16.70;1.00
3023;DHT22;1521;53.584;9.938;2023-05-07T16:20:36;16.70;1.00
3023;DHT22;1521;53.584;9.938;2023-05-07T16:23:03;16.70;1.00
3023;DHT22;1521;53.584;9.938;2023-05-07T16:25:29;16.70;1.00
3023;DHT22;1521;53.584;9.938;2023-05-07T16:27:54;16.80;1.00
3023;DHT22;1521;53.584;9.938;2023-05-07T16:30:20;16.80;1.00